Time;durP1;ratioP1;P1;durP2;ratioP2;P2;SDS_P1;SDS_P2;PMS_P1;PMS_P2;Temp;Humidity;BMP_temperature;BMP_pressure;BME280_temperature;BME280_humidity;BME280_pressure;Samples;Min_cycle;Max_cycle;Signal;HPM_P1;HPM_P2
2023/01/03 00:01:44;;;;;;;;;;;;;;;;;;5057497;28;19916;-23
2023/01/03 00:04:10;;;;;;;;;;;;;;;;;;5057245;28;19974;-23
2023/01/03 00:06:36;;;;;;;;;;;;;;;;;;5057313;28;20011;-23
2023/01/03 00:09:02;;;;;;;;;;;;;;;;;;5057755;28;20016;-23
2023/01/03 00:14:13;;;;;;;;;;;;;;;;;;5057557;28;19973;-22
2023/01/03 00:16:39;;;;;;;;;;;;;;;;;;5057187;28;19924;-23
2023/01/03 00:19:05;;;;;;;;;;;;;;;;;;5056150;28;19920;-23
2023/01/03 00:21:31;;;;;;;;;;;;;;;;;;5057113;28;19924;-23
2023/01/03 00:23:57;;;;;;;;;;;;;;;;;;5056959;28;19908;-23
2023/01/03 00:26:23;;;;;;;;;;;;;;;;;;5057202;28;20003;-23
2023/01/03 00:28:49;;;;;;;;;;;;;;;;;;5056924;28;20336;-23
2023/01/03 00:31:15;;;;;;;;;;;;;;;;;;5056863;28;19912;-23
2023/01/03 00:33:41;;;;;;;;;;;;;;;;;;5056714;28;19932;-23
2023/01/03 00:36:07;;;;;;;;;;;;;;;;;;5056873;28;19966;-23
2023/01/03 00:38:33;;;;;;;;;;;;;;;;;;5056861;28;19948;-23
2023/01/03 00:40:59;;;;;;;;;;;;;;;;;;5056708;28;19919;-23
2023/01/03 00:43:28;;;;;;;;;;;;;;;;;;5056598;28;20341;-23
2023/01/03 00:45:54;;;;;;;;;;;;;;;;;;5056666;28;19917;-23
2023/01/03 00:48:20;;;;;;;;;;;;;;;;;;5057058;28;19978;-23
2023/01/03 00:50:46;;;;;;;;;;;;;;;;;;5056735;28;20328;-23
2023/01/03 00:53:12;;;;;;;;;;;;;;;;;;5056378;28;19908;-23
2023/01/03 00:55:38;;;;;;;;;;;;;;;;;;5056982;28;19913;-23
2023/01/03 00:58:04;;;;;;;;;;;;;;;;;;5056320;28;20343;-23
2023/01/03 01:00:30;;;;;;;;;;;;;;;;;;5056569;28;19909;-23
2023/01/03 01:02:56;;;;;;;;;;;;;;;;;;5056198;28;19928;-27
2023/01/03 01:05:22;;;;;;;;;;;;;;;;;;5055539;28;19999;-23
2023/01/03 01:07:48;;;;;;;;;;;;;;;;;;5056386;28;19970;-23
2023/01/03 01:10:18;;;;;;;;;;;;;;;;;;5056148;28;19913;-23
2023/01/03 01:12:44;;;;;;;;;;;;;;;;;;5056018;28;19909;-23
2023/01/03 01:15:10;;;;;;;;;;;;;;;;;;5056124;28;19966;-23
2023/01/03 01:17:36;;;;;;;;;;;;;;;;;;5055027;28;20247;-23
2023/01/03 01:20:02;;;;;;;;;;;;;;;;;;5056038;28;20004;-23
2023/01/03 01:22:28;;;;;;;;;;;;;;;;;;5055868;28;19951;-23
2023/01/03 01:24:54;;;;;;;;;;;;;;;;;;5055945;28;19955;-23
2023/01/03 01:27:20;;;;;;;;;;;;;;;;;;5055819;28;19963;-23
2023/01/03 01:29:46;;;;;;;;;;;;;;;;;;5054698;28;19956;-23
2023/01/03 01:32:12;;;;;;;;;;;;;;;;;;5054624;28;19966;-23
2023/01/03 01:34:38;;;;;;;;;;;;;;;;;;5055978;28;19919;-23
2023/01/03 01:37:04;;;;;;;;;;;;;;;;;;5054685;28;19908;-23
2023/01/03 01:39:30;;;;;;;;;;;;;;;;;;5055611;28;19994;-34
2023/01/03 01:44:40;;;;;;;;;;;;;;;;;;5055832;28;19916;-23
2023/01/03 01:47:06;;;;;;;;;;;;;;;;;;5055416;28;19913;-23
2023/01/03 01:49:32;;;;;;;;;;;;;;;;;;5055312;28;19924;-23
2023/01/03 01:51:58;;;;;;;;;;;;;;;;;;5055280;28;20025;-23
2023/01/03 01:54:24;;;;;;;;;;;;;;;;;;5055545;28;20331;-23
2023/01/03 01:56:50;;;;;;;;;;;;;;;;;;5055276;28;19917;-23
2023/01/03 01:59:17;;;;;;;;;;;;;;;;;;5055304;28;19952;-23
2023/01/03 02:01:43;;;;;;;;;;;;;;;;;;5055401;28;19940;-23
2023/01/03 02:04:09;;;;;;;;;;;;;;;;;;5054789;28;19929;-23
2023/01/03 02:06:35;;;;;;;;;;;;;;;;;;5055394;28;19912;-23
2023/01/03 02:09:01;;;;;;;;;;;;;;;;;;5055254;28;19912;-23
2023/01/03 02:11:27;;;;;;;;;;;;;;;;;;5054934;28;19913;-23
2023/01/03 02:13:53;;;;;;;;;;;;;;;;;;5055122;28;19925;-23
2023/01/03 02:16:19;;;;;;;;;;;;;;;;;;5055094;28;19913;-23
2023/01/03 02:18:45;;;;;;;;;;;;;;;;;;5054955;28;19923;-23
2023/01/03 02:21:11;;;;;;;;;;;;;;;;;;5055123;28;19939;-23
2023/01/03 02:23:37;;;;;;;;;;;;;;;;;;5054719;28;19909;-23
2023/01/03 02:26:03;;;;;;;;;;;;;;;;;;5054807;28;20375;-23
2023/01/03 02:28:29;;;;;;;;;;;;;;;;;;5054661;28;19970;-23
2023/01/03 02:30:55;;;;;;;;;;;;;;;;;;5054956;28;20057;-23
2023/01/03 02:33:21;;;;;;;;;;;;;;;;;;5054653;28;19966;-23
2023/01/03 02:35:47;;;;;;;;;;;;;;;;;;5054703;28;20339;-23
2023/01/03 02:38:13;;;;;;;;;;;;;;;;;;5054653;28;19916;-23
2023/01/03 02:40:39;;;;;;;;;;;;;;;;;;5054600;28;19944;-23
2023/01/03 02:43:05;;;;;;;;;;;;;;;;;;5054521;28;20004;-23
2023/01/03 02:45:31;;;;;;;;;;;;;;;;;;5054609;28;19992;-22
2023/01/03 02:47:57;;;;;;;;;;;;;;;;;;5054405;28;19917;-23
2023/01/03 02:50:23;;;;;;;;;;;;;;;;;;5054507;28;19975;-22
2023/01/03 02:52:49;;;;;;;;;;;;;;;;;;5054561;28;19924;-23
2023/01/03 02:55:15;;;;;;;;;;;;;;;;;;5053368;28;19976;-23
2023/01/03 02:57:41;;;;;;;;;;;;;;;;;;5054692;28;19913;-23
2023/01/03 03:00:08;;;;;;;;;;;;;;;;;;5054465;28;19909;-23
2023/01/03 03:02:34;;;;;;;;;;;;;;;;;;5054050;28;19995;-23
2023/01/03 03:05:00;;;;;;;;;;;;;;;;;;5053315;28;20005;-24
2023/01/03 03:07:26;;;;;;;;;;;;;;;;;;5054240;28;20018;-23
2023/01/03 03:15:22;;;;;;;;;;;;;;;;;;5054615;28;20248;-23
2023/01/03 03:17:48;;;;;;;;;;;;;;;;;;5054234;28;19912;-23
2023/01/03 03:25:43;;;;;;;;;;;;;;;;;;5054217;28;19928;-23
2023/01/03 03:30:53;;;;;;;;;;;;;;;;;;5058374;28;19978;-23
2023/01/03 03:33:19;;;;;;;;;;;;;;;;;;5057858;28;19913;-23
2023/01/03 03:35:46;;;;;;;;;;;;;;;;;;5058026;28;20000;-23
2023/01/03 03:38:12;;;;;;;;;;;;;;;;;;5057929;28;19939;-23
2023/01/03 03:46:07;;;;;;;;;;;;;;;;;;5058094;28;19915;-23
2023/01/03 03:49:36;;;;;;;;;;;;;;;;;;5057616;28;19998;-23
2023/01/03 03:51:19;;;;;;;;;;;;;;;;;;5057560;28;19920;-23
2023/01/03 03:53:45;;;;;;;;;;;;;;;;;;5057563;28;19988;-23
2023/01/03 03:56:11;;;;;;;;;;;;;;;;;;5057895;28;20015;-23
2023/01/03 03:58:37;;;;;;;;;;;;;;;;;;5057576;28;19949;-23
2023/01/03 04:01:03;;;;;;;;;;;;;;;;;;5058202;28;19959;-23
2023/01/03 04:03:29;;;;;;;;;;;;;;;;;;5056154;28;20291;-24
2023/01/03 04:05:55;;;;;;;;;;;;;;;;;;5057401;28;20259;-23
2023/01/03 04:08:20;;;;;;;;;;;;;;;;;;5056301;28;19916;-23
2023/01/03 04:10:46;;;;;;;;;;;;;;;;;;5057590;28;19928;-23
2023/01/03 04:13:12;;;;;;;;;;;;;;;;;;5057140;28;20408;-23
2023/01/03 04:15:38;;;;;;;;;;;;;;;;;;5057204;28;20047;-23
2023/01/03 04:18:04;;;;;;;;;;;;;;;;;;5057141;28;19908;-23
2023/01/03 04:20:30;;;;;;;;;;;;;;;;;;5056989;28;20306;-24
2023/01/03 04:22:56;;;;;;;;;;;;;;;;;;5057224;28;19971;-23
2023/01/03 04:25:22;;;;;;;;;;;;;;;;;;5056972;28;20040;-24
2023/01/03 04:27:48;;;;;;;;;;;;;;;;;;5057160;28;19943;-24
2023/01/03 04:30:14;;;;;;;;;;;;;;;;;;5057221;28;19923;-23
2023/01/03 04:32:41;;;;;;;;;;;;;;;;;;5056833;28;19932;-23
2023/01/03 04:35:07;;;;;;;;;;;;;;;;;;5056850;28;19912;-23
2023/01/03 04:37:33;;;;;;;;;;;;;;;;;;5057081;28;19924;-23
2023/01/03 04:39:59;;;;;;;;;;;;;;;;;;5054429;28;19913;-23
2023/01/03 04:45:09;;;;;;;;;;;;;;;;;;5056931;28;20263;-23
2023/01/03 04:47:35;;;;;;;;;;;;;;;;;;5056502;28;20013;-23
2023/01/03 04:50:01;;;;;;;;;;;;;;;;;;5056417;28;19917;-23
2023/01/03 04:52:27;;;;;;;;;;;;;;;;;;5056538;28;19924;-23
2023/01/03 04:54:53;;;;;;;;;;;;;;;;;;5056380;28;20236;-23
2023/01/03 04:57:19;;;;;;;;;;;;;;;;;;5056230;28;19913;-24
2023/01/03 04:59:45;;;;;;;;;;;;;;;;;;5056127;28;19916;-24
2023/01/03 05:02:11;;;;;;;;;;;;;;;;;;5056389;28;20318;-24
2023/01/03 05:04:37;;;;;;;;;;;;;;;;;;5055850;28;20403;-24
2023/01/03 05:07:03;;;;;;;;;;;;;;;;;;5054965;28;19991;-24
2023/01/03 05:09:29;;;;;;;;;;;;;;;;;;5055868;28;19988;-24
2023/01/03 05:11:55;;;;;;;;;;;;;;;;;;5055942;28;19909;-25
2023/01/03 05:14:21;;;;;;;;;;;;;;;;;;5055063;28;20224;-24
2023/01/03 05:16:47;;;;;;;;;;;;;;;;;;5055949;28;20207;-24
2023/01/03 05:19:13;;;;;;;;;;;;;;;;;;5055844;28;20011;-28
2023/01/03 05:27:09;;;;;;;;;;;;;;;;;;5055817;28;19923;-28
2023/01/03 05:29:35;;;;;;;;;;;;;;;;;;5055587;28;19916;-29
2023/01/03 05:32:01;;;;;;;;;;;;;;;;;;5055700;28;20319;-26
2023/01/03 05:34:27;;;;;;;;;;;;;;;;;;5055409;28;20270;-28
2023/01/03 05:36:53;;;;;;;;;;;;;;;;;;5055595;28;19913;-29
2023/01/03 05:39:19;;;;;;;;;;;;;;;;;;5055665;28;19919;-26
2023/01/03 05:42:00;;;;;;;;;;;;;;;;;;5055491;28;19913;-26
2023/01/03 05:44:26;;;;;;;;;;;;;;;;;;5055436;28;19948;-27
2023/01/03 05:46:52;;;;;;;;;;;;;;;;;;5055631;28;20021;-24
2023/01/03 05:49:18;;;;;;;;;;;;;;;;;;5055318;28;19917;-28
2023/01/03 05:51:44;;;;;;;;;;;;;;;;;;5054691;28;19987;-26
2023/01/03 05:54:10;;;;;;;;;;;;;;;;;;5055164;28;20379;-29
2023/01/03 05:56:36;;;;;;;;;;;;;;;;;;5055469;28;20370;-29
2023/01/03 05:59:03;;;;;;;;;;;;;;;;;;5055018;28;19913;-29
2023/01/03 06:01:29;;;;;;;;;;;;;;;;;;5054700;28;19912;-32
2023/01/03 06:03:55;;;;;;;;;;;;;;;;;;5053262;28;20373;-31
2023/01/03 06:06:21;;;;;;;;;;;;;;;;;;5054855;28;20233;-27
2023/01/03 06:08:47;;;;;;;;;;;;;;;;;;5054676;28;20007;-27
2023/01/03 06:11:13;;;;;;;;;;;;;;;;;;5054892;28;19917;-31
2023/01/03 06:13:39;;;;;;;;;;;;;;;;;;5053657;28;19919;-29
2023/01/03 06:18:50;;;;;;;;;;;;;;;;;;5054603;28;20258;-31
2023/01/03 06:21:16;;;;;;;;;;;;;;;;;;5054473;28;19917;-32
2023/01/03 06:23:44;;;;;;;;;;;;;;;;;;5054389;28;20252;-25
2023/01/03 06:26:10;;;;;;;;;;;;;;;;;;5053511;28;19913;-32
2023/01/03 06:28:36;;;;;;;;;;;;;;;;;;5054410;28;20363;-29
2023/01/03 06:31:02;;;;;;;;;;;;;;;;;;5054548;28;19913;-28
2023/01/03 06:33:28;;;;;;;;;;;;;;;;;;5054675;28;19967;-28
2023/01/03 06:35:54;;;;;;;;;;;;;;;;;;5054675;28;19969;-26
2023/01/03 06:38:20;;;;;;;;;;;;;;;;;;5054434;28;20011;-27
2023/01/03 06:40:46;;;;;;;;;;;;;;;;;;5054574;28;19931;-30
2023/01/03 06:43:12;;;;;;;;;;;;;;;;;;5054078;28;20296;-30
2023/01/03 06:53:52;;;;;;;;;;;;;;;;;;5054285;28;20382;-29
2023/01/03 06:56:18;;;;;;;;;;;;;;;;;;5054413;28;19913;-32
2023/01/03 06:58:44;;;;;;;;;;;;;;;;;;5054261;28;19912;-31
2023/01/03 07:01:10;;;;;;;;;;;;;;;;;;5054049;28;19909;-27
2023/01/03 07:03:36;;;;;;;;;;;;;;;;;;5055699;28;19927;-26
2023/01/03 07:06:04;;;;;;;;;;;;;;;;;;5057683;28;20450;-30
2023/01/03 07:08:30;;;;;;;;;;;;;;;;;;5058057;28;19916;-29
2023/01/03 07:10:56;;;;;;;;;;;;;;;;;;5058033;28;19917;-27
2023/01/03 07:16:07;;;;;;;;;;;;;;;;;;5057725;28;19927;-27
2023/01/03 07:18:33;;;;;;;;;;;;;;;;;;5057667;28;20355;-28
2023/01/03 07:20:59;;;;;;;;;;;;;;;;;;5057501;28;20259;-26
2023/01/03 07:23:25;;;;;;;;;;;;;;;;;;5056275;28;19913;-28
2023/01/03 07:25:51;;;;;;;;;;;;;;;;;;5057302;28;19913;-30
2023/01/03 07:28:17;;;;;;;;;;;;;;;;;;5057234;28;19935;-32
2023/01/03 07:30:43;;;;;;;;;;;;;;;;;;5057563;28;19917;-29
2023/01/03 07:33:09;;;;;;;;;;;;;;;;;;5056154;28;19909;-33
2023/01/03 07:35:35;;;;;;;;;;;;;;;;;;5057152;28;20269;-26
2023/01/03 07:38:01;;;;;;;;;;;;;;;;;;5057222;28;20327;-29
2023/01/03 07:40:27;;;;;;;;;;;;;;;;;;5057413;28;19913;-31
2023/01/03 07:43:38;;;;;;;;;;;;;;;;;;5058088;28;19916;-28
2023/01/03 07:45:40;;;;;;;;;;;;;;;;;;5043490;28;19913;-27
2023/01/03 07:48:06;;;;;;;;;;;;;;;;;;5057735;28;19929;-26
2023/01/03 07:50:32;;;;;;;;;;;;;;;;;;5057679;28;19909;-27
2023/01/03 07:52:58;;;;;;;;;;;;;;;;;;5057353;28;20220;-31
2023/01/03 07:55:24;;;;;;;;;;;;;;;;;;5057364;28;19916;-31
2023/01/03 07:57:50;;;;;;;;;;;;;;;;;;5057709;28;19924;-30
2023/01/03 08:00:16;;;;;;;;;;;;;;;;;;5056575;28;19913;-28
2023/01/03 08:02:42;;;;;;;;;;;;;;;;;;5057039;28;19921;-31
2023/01/03 08:05:08;;;;;;;;;;;;;;;;;;5057373;28;19957;-32
2023/01/03 08:07:35;;;;;;;;;;;;;;;;;;5056919;28;20329;-28
2023/01/03 08:15:30;;;;;;;;;;;;;;;;;;5056627;28;19966;-27
2023/01/03 08:17:57;;;;;;;;;;;;;;;;;;5056816;28;19959;-26
2023/01/03 08:20:22;;;;;;;;;;;;;;;;;;5056646;28;19913;-29
2023/01/03 08:22:48;;;;;;;;;;;;;;;;;;5056823;28;19909;-26
2023/01/03 08:25:14;;;;;;;;;;;;;;;;;;5056731;28;19924;-29
2023/01/03 08:27:40;;;;;;;;;;;;;;;;;;5055630;28;19971;-29
2023/01/03 08:30:06;;;;;;;;;;;;;;;;;;5056577;28;19982;-32
2023/01/03 08:32:32;;;;;;;;;;;;;;;;;;5056298;28;19948;-27
2023/01/03 08:34:58;;;;;;;;;;;;;;;;;;5056620;28;19912;-27
2023/01/03 08:37:24;;;;;;;;;;;;;;;;;;5056581;28;20260;-31
2023/01/03 08:39:50;;;;;;;;;;;;;;;;;;5056796;28;19917;-32
2023/01/03 08:42:19;;;;;;;;;;;;;;;;;;5056887;28;19912;-29
2023/01/03 08:44:45;;;;;;;;;;;;;;;;;;5056441;28;20355;-28
2023/01/03 08:47:11;;;;;;;;;;;;;;;;;;5056757;28;19965;-31
2023/01/03 08:49:37;;;;;;;;;;;;;;;;;;5055354;28;19917;-28
2023/01/03 08:52:03;;;;;;;;;;;;;;;;;;5056534;28;19923;-30
2023/01/03 08:54:29;;;;;;;;;;;;;;;;;;5056322;28;19994;-27
2023/01/03 08:56:55;;;;;;;;;;;;;;;;;;5056570;28;19959;-29
2023/01/03 08:59:21;;;;;;;;;;;;;;;;;;5056568;28;20012;-31
2023/01/03 09:01:47;;;;;;;;;;;;;;;;;;5056385;28;20352;-29
2023/01/03 09:04:13;;;;;;;;;;;;;;;;;;5055963;28;19925;-28
2023/01/03 09:06:39;;;;;;;;;;;;;;;;;;5055977;28;20371;-25
2023/01/03 09:09:05;;;;;;;;;;;;;;;;;;5055996;28;19991;-28
2023/01/03 09:11:31;;;;;;;;;;;;;;;;;;5055948;28;20375;-30
2023/01/03 09:13:57;;;;;;;;;;;;;;;;;;5055891;28;19913;-31
2023/01/03 09:16:23;;;;;;;;;;;;;;;;;;5055661;28;19939;-29
2023/01/03 09:18:49;;;;;;;;;;;;;;;;;;5055708;28;19917;-26
2023/01/03 09:21:15;;;;;;;;;;;;;;;;;;5055981;28;19920;-31
2023/01/03 09:23:41;;;;;;;;;;;;;;;;;;5055509;28;19909;-30
2023/01/03 09:26:07;;;;;;;;;;;;;;;;;;5054904;28;19962;-28
2023/01/03 09:28:33;;;;;;;;;;;;;;;;;;5055297;28;20378;-26
2023/01/03 09:30:59;;;;;;;;;;;;;;;;;;5055346;28;20401;-29
2023/01/03 09:33:25;;;;;;;;;;;;;;;;;;5055612;28;19916;-28
2023/01/03 09:35:51;;;;;;;;;;;;;;;;;;5054475;28;19916;-31
2023/01/03 09:38:17;;;;;;;;;;;;;;;;;;5055498;28;19915;-28
2023/01/03 09:40:43;;;;;;;;;;;;;;;;;;5054396;28;20350;-28
2023/01/03 09:43:12;;;;;;;;;;;;;;;;;;5054199;28;19920;-27
2023/01/03 09:45:38;;;;;;;;;;;;;;;;;;5054718;28;20278;-28
2023/01/03 09:48:05;;;;;;;;;;;;;;;;;;5054583;28;19909;-31
2023/01/03 09:50:31;;;;;;;;;;;;;;;;;;5054482;28;19916;-26
2023/01/03 10:03:56;;;;;;;;;;;;;;;;;;5054043;28;19927;-32
2023/01/03 10:06:21;;;;;;;;;;;;;;;;;;5054165;28;19932;-31
2023/01/03 10:08:47;;;;;;;;;;;;;;;;;;5054277;28;19981;-28
2023/01/03 10:11:14;;;;;;;;;;;;;;;;;;5054132;28;19917;-26
2023/01/03 10:13:40;;;;;;;;;;;;;;;;;;5052870;28;19913;-28
2023/01/03 10:16:06;;;;;;;;;;;;;;;;;;5054125;28;20355;-27
2023/01/03 10:18:32;;;;;;;;;;;;;;;;;;5054224;28;19913;-27
2023/01/03 10:20:58;;;;;;;;;;;;;;;;;;5054208;28;20069;-26
2023/01/03 10:23:24;;;;;;;;;;;;;;;;;;5054188;28;20062;-35
2023/01/03 10:25:51;;;;;;;;;;;;;;;;;;5054887;28;19919;-28
2023/01/03 10:28:17;;;;;;;;;;;;;;;;;;5054677;28;19913;-23
2023/01/03 10:30:43;;;;;;;;;;;;;;;;;;5054772;28;19913;-25
2023/01/03 10:33:09;;;;;;;;;;;;;;;;;;5054405;28;20350;-30
2023/01/03 10:35:35;;;;;;;;;;;;;;;;;;5054485;28;19995;-28
2023/01/03 10:38:01;;;;;;;;;;;;;;;;;;5054289;28;19955;-31
2023/01/03 10:40:27;;;;;;;;;;;;;;;;;;5054471;28;19913;-25
2023/01/03 10:42:54;;;;;;;;;;;;;;;;;;5054200;28;19982;-27
2023/01/03 10:45:20;;;;;;;;;;;;;;;;;;5054377;28;20407;-30
2023/01/03 10:47:46;;;;;;;;;;;;;;;;;;5053589;28;19920;-26
2023/01/03 10:50:12;;;;;;;;;;;;;;;;;;5054119;28;19917;-25
2023/01/03 10:52:38;;;;;;;;;;;;;;;;;;5054378;28;19967;-26
2023/01/03 10:55:04;;;;;;;;;;;;;;;;;;5054167;28;19912;-27
2023/01/03 10:57:30;;;;;;;;;;;;;;;;;;5054294;28;19948;-28
2023/01/03 10:59:56;;;;;;;;;;;;;;;;;;5054094;28;19913;-30
2023/01/03 11:02:22;;;;;;;;;;;;;;;;;;5053092;28;19969;-27
2023/01/03 11:04:48;;;;;;;;;;;;;;;;;;5054100;28;19921;-32
2023/01/03 11:07:15;;;;;;;;;;;;;;;;;;5054182;28;19912;-24
2023/01/03 11:09:41;;;;;;;;;;;;;;;;;;5053943;28;19925;-25
2023/01/03 11:12:07;;;;;;;;;;;;;;;;;;5052815;28;19920;-33
2023/01/03 11:14:33;;;;;;;;;;;;;;;;;;5053871;28;19956;-27
2023/01/03 11:16:59;;;;;;;;;;;;;;;;;;5053878;28;19912;-28
2023/01/03 11:19:25;;;;;;;;;;;;;;;;;;5053858;28;20011;-27
2023/01/03 11:21:51;;;;;;;;;;;;;;;;;;5053921;28;20007;-28
2023/01/03 11:24:18;;;;;;;;;;;;;;;;;;5054128;28;20308;-27
2023/01/03 11:26:44;;;;;;;;;;;;;;;;;;5053694;28;19935;-26
2023/01/03 11:29:10;;;;;;;;;;;;;;;;;;5053330;28;19912;-28
2023/01/03 11:31:38;;;;;;;;;;;;;;;;;;5053347;28;19912;-30
2023/01/03 11:34:04;;;;;;;;;;;;;;;;;;5053197;28;19924;-25
2023/01/03 11:36:30;;;;;;;;;;;;;;;;;;5053346;28;19912;-27
2023/01/03 11:38:56;;;;;;;;;;;;;;;;;;5053373;28;19920;-27
2023/01/03 11:41:22;;;;;;;;;;;;;;;;;;5052512;28;19912;-25
2023/01/03 11:43:48;;;;;;;;;;;;;;;;;;5053867;28;20000;-28
2023/01/03 11:46:14;;;;;;;;;;;;;;;;;;5053689;28;19959;-27
2023/01/03 11:48:40;;;;;;;;;;;;;;;;;;5053835;28;19916;-30
2023/01/03 11:51:06;;;;;;;;;;;;;;;;;;5057005;28;20417;-27
2023/01/03 11:53:32;;;;;;;;;;;;;;;;;;5057125;28;20233;-28
2023/01/03 11:55:58;;;;;;;;;;;;;;;;;;5056217;28;19916;-24
2023/01/03 11:58:24;;;;;;;;;;;;;;;;;;5057083;28;19919;-25
2023/01/03 12:00:50;;;;;;;;;;;;;;;;;;5056574;28;19981;-29
2023/01/03 12:03:16;;;;;;;;;;;;;;;;;;5056174;28;19920;-30
2023/01/03 12:05:42;;;;;;;;;;;;;;;;;;5056384;28;19974;-25
2023/01/03 12:08:08;;;;;;;;;;;;;;;;;;5056619;28;20282;-26
2023/01/03 12:10:34;;;;;;;;;;;;;;;;;;5055483;28;19953;-28
2023/01/03 12:13:00;;;;;;;;;;;;;;;;;;5056412;28;20263;-26
2023/01/03 12:15:26;;;;;;;;;;;;;;;;;;5056447;28;19923;-33
2023/01/03 12:17:52;;;;;;;;;;;;;;;;;;5056326;28;19909;-27
2023/01/03 12:20:19;;;;;;;;;;;;;;;;;;5056406;28;19920;-29
2023/01/03 12:22:45;;;;;;;;;;;;;;;;;;5056556;28;20371;-28
2023/01/03 12:25:11;;;;;;;;;;;;;;;;;;5056632;28;19913;-26
2023/01/03 12:27:37;;;;;;;;;;;;;;;;;;5056621;28;19915;-24
2023/01/03 12:30:03;;;;;;;;;;;;;;;;;;5056585;28;20007;-27
2023/01/03 12:32:29;;;;;;;;;;;;;;;;;;5056359;28;20297;-26
2023/01/03 12:34:55;;;;;;;;;;;;;;;;;;5056320;28;19912;-27
2023/01/03 12:37:21;;;;;;;;;;;;;;;;;;5056191;28;19974;-27
2023/01/03 12:39:48;;;;;;;;;;;;;;;;;;5056390;28;20260;-27
2023/01/03 12:42:13;;;;;;;;;;;;;;;;;;5056012;28;20362;-29
2023/01/03 12:44:39;;;;;;;;;;;;;;;;;;5055965;28;19927;-28
2023/01/03 12:47:05;;;;;;;;;;;;;;;;;;5055786;28;19942;-29
2023/01/03 12:49:32;;;;;;;;;;;;;;;;;;5056186;28;20287;-28
2023/01/03 12:51:58;;;;;;;;;;;;;;;;;;5055302;28;20398;-28
2023/01/03 12:54:24;;;;;;;;;;;;;;;;;;5056842;28;20270;-29
2023/01/03 12:56:50;;;;;;;;;;;;;;;;;;5056432;28;19917;-34
2023/01/03 12:59:16;;;;;;;;;;;;;;;;;;5056458;28;19996;-26
2023/01/03 13:01:42;;;;;;;;;;;;;;;;;;5053874;28;19913;-29
2023/01/03 13:04:08;;;;;;;;;;;;;;;;;;5055461;28;19921;-28
2023/01/03 13:06:34;;;;;;;;;;;;;;;;;;5056379;28;19912;-25
2023/01/03 13:09:00;;;;;;;;;;;;;;;;;;5056216;28;19991;-34
2023/01/03 13:11:26;;;;;;;;;;;;;;;;;;5054874;28;19912;-28
2023/01/03 13:13:52;;;;;;;;;;;;;;;;;;5056389;28;20342;-27
2023/01/03 13:16:18;;;;;;;;;;;;;;;;;;5056056;28;19913;-27
2023/01/03 13:18:44;;;;;;;;;;;;;;;;;;5056060;28;19916;-28
2023/01/03 13:21:10;;;;;;;;;;;;;;;;;;5056176;28;19924;-29
2023/01/03 13:23:36;;;;;;;;;;;;;;;;;;5055719;28;19912;-25
2023/01/03 13:26:03;;;;;;;;;;;;;;;;;;5055609;28;19931;-26
2023/01/03 13:28:29;;;;;;;;;;;;;;;;;;5054706;28;19913;-30
2023/01/03 13:30:55;;;;;;;;;;;;;;;;;;5055538;28;20382;-25
2023/01/03 13:33:21;;;;;;;;;;;;;;;;;;5055395;28;20004;-27
2023/01/03 13:35:47;;;;;;;;;;;;;;;;;;5055192;28;20367;-31
2023/01/03 13:38:13;;;;;;;;;;;;;;;;;;5055138;28;19917;-28
2023/01/03 13:40:39;;;;;;;;;;;;;;;;;;5055548;28;19909;-31
2023/01/03 13:43:05;;;;;;;;;;;;;;;;;;5055263;28;20000;-28
2023/01/03 13:45:31;;;;;;;;;;;;;;;;;;5055605;28;19919;-31
2023/01/03 13:47:57;;;;;;;;;;;;;;;;;;5055284;28;19909;-29
2023/01/03 13:50:23;;;;;;;;;;;;;;;;;;5054139;28;19970;-29
2023/01/03 13:52:49;;;;;;;;;;;;;;;;;;5055091;28;19927;-28
2023/01/03 13:55:15;;;;;;;;;;;;;;;;;;5055062;28;19923;-31
2023/01/03 13:57:41;;;;;;;;;;;;;;;;;;5053743;28;19912;-32
2023/01/03 14:00:08;;;;;;;;;;;;;;;;;;5053750;28;19912;-29
2023/01/03 14:02:34;;;;;;;;;;;;;;;;;;5054822;28;20331;-29
2023/01/03 14:05:00;;;;;;;;;;;;;;;;;;5054818;28;19931;-26
2023/01/03 14:07:26;;;;;;;;;;;;;;;;;;5054145;28;19908;-29
2023/01/03 14:09:52;;;;;;;;;;;;;;;;;;5054858;28;19917;-32
2023/01/03 14:12:18;;;;;;;;;;;;;;;;;;5054637;28;20232;-29
2023/01/03 14:14:44;;;;;;;;;;;;;;;;;;5054668;28;19917;-31
2023/01/03 14:17:10;;;;;;;;;;;;;;;;;;5054861;28;19932;-30
2023/01/03 14:19:36;;;;;;;;;;;;;;;;;;5054812;28;19913;-31
2023/01/03 14:22:02;;;;;;;;;;;;;;;;;;5054884;28;19920;-28
2023/01/03 14:24:28;;;;;;;;;;;;;;;;;;5054576;28;20233;-30
2023/01/03 14:26:54;;;;;;;;;;;;;;;;;;5054533;28;20279;-32
2023/01/03 14:29:20;;;;;;;;;;;;;;;;;;5054305;28;20338;-35
2023/01/03 14:31:46;;;;;;;;;;;;;;;;;;5054266;28;19935;-31
2023/01/03 14:34:12;;;;;;;;;;;;;;;;;;5053980;28;20347;-28
2023/01/03 14:36:38;;;;;;;;;;;;;;;;;;5054751;28;20267;-30
2023/01/03 14:39:05;;;;;;;;;;;;;;;;;;5053407;28;19913;-30
2023/01/03 14:41:31;;;;;;;;;;;;;;;;;;5054400;28;19946;-27
2023/01/03 14:43:57;;;;;;;;;;;;;;;;;;5054748;28;19927;-32
2023/01/03 14:46:23;;;;;;;;;;;;;;;;;;5054113;28;19916;-28
2023/01/03 14:48:49;;;;;;;;;;;;;;;;;;5054140;28;19920;-30
2023/01/03 14:51:15;;;;;;;;;;;;;;;;;;5053966;28;19926;-31
2023/01/03 14:53:42;;;;;;;;;;;;;;;;;;5053996;28;20182;-28
2023/01/03 14:56:08;;;;;;;;;;;;;;;;;;5054105;28;20027;-29
2023/01/03 14:58:34;;;;;;;;;;;;;;;;;;5054370;28;19974;-28
2023/01/03 15:01:00;;;;;;;;;;;;;;;;;;5054017;28;19940;-31
2023/01/03 15:03:26;;;;;;;;;;;;;;;;;;5053623;28;19978;-32
2023/01/03 15:05:53;;;;;;;;;;;;;;;;;;5054014;28;19920;-27
2023/01/03 15:08:19;;;;;;;;;;;;;;;;;;5053886;28;20292;-29
2023/01/03 15:10:45;;;;;;;;;;;;;;;;;;5053879;28;19962;-25
2023/01/03 15:13:11;;;;;;;;;;;;;;;;;;5053596;28;19913;-27
2023/01/03 15:15:37;;;;;;;;;;;;;;;;;;5054096;28;19913;-26
2023/01/03 15:18:03;;;;;;;;;;;;;;;;;;5054281;28;20018;-26
2023/01/03 15:20:29;;;;;;;;;;;;;;;;;;5054112;28;19913;-25
2023/01/03 15:22:55;;;;;;;;;;;;;;;;;;5054066;28;20336;-28
2023/01/03 15:25:21;;;;;;;;;;;;;;;;;;5057301;28;20015;-31
2023/01/03 15:27:47;;;;;;;;;;;;;;;;;;5057926;28;20315;-26
2023/01/03 15:30:13;;;;;;;;;;;;;;;;;;5058124;28;20287;-27
2023/01/03 15:32:39;;;;;;;;;;;;;;;;;;5057732;28;19909;-27
2023/01/03 15:35:05;;;;;;;;;;;;;;;;;;5057589;28;19975;-26
2023/01/03 15:37:31;;;;;;;;;;;;;;;;;;5057860;28;20251;-25
2023/01/03 15:39:57;;;;;;;;;;;;;;;;;;5057542;28;19928;-28
2023/01/03 15:45:08;;;;;;;;;;;;;;;;;;5057733;28;19963;-29
2023/01/03 15:47:34;;;;;;;;;;;;;;;;;;5057376;28;20315;-32
2023/01/03 15:50:00;;;;;;;;;;;;;;;;;;5055956;28;20016;-31
2023/01/03 15:52:26;;;;;;;;;;;;;;;;;;5056766;28;19921;-25
2023/01/03 15:54:52;;;;;;;;;;;;;;;;;;5057597;28;19999;-27
2023/01/03 15:57:19;;;;;;;;;;;;;;;;;;5057686;28;20241;-28
2023/01/03 15:59:45;;;;;;;;;;;;;;;;;;5057575;28;20234;-25
2023/01/03 16:02:11;;;;;;;;;;;;;;;;;;5056788;28;19999;-29
2023/01/03 16:04:37;;;;;;;;;;;;;;;;;;5056930;28;20317;-27
2023/01/03 16:07:03;;;;;;;;;;;;;;;;;;5056893;28;20151;-29
2023/01/03 16:09:29;;;;;;;;;;;;;;;;;;5056878;28;19997;-27
2023/01/03 16:11:55;;;;;;;;;;;;;;;;;;5056705;28;20260;-27
2023/01/03 16:14:21;;;;;;;;;;;;;;;;;;5056581;28;19997;-26
2023/01/03 16:16:47;;;;;;;;;;;;;;;;;;5056341;28;20417;-29
2023/01/03 16:19:13;;;;;;;;;;;;;;;;;;5056348;28;19951;-28
2023/01/03 16:21:39;;;;;;;;;;;;;;;;;;5055305;28;19924;-28
2023/01/03 16:24:05;;;;;;;;;;;;;;;;;;5055214;28;19909;-32
2023/01/03 16:26:31;;;;;;;;;;;;;;;;;;5056200;28;19913;-28
2023/01/03 16:28:58;;;;;;;;;;;;;;;;;;5056537;28;19948;-28
2023/01/03 16:31:24;;;;;;;;;;;;;;;;;;5056361;28;19917;-32
2023/01/03 16:33:50;;;;;;;;;;;;;;;;;;5055865;28;20263;-27
2023/01/03 16:36:16;;;;;;;;;;;;;;;;;;5055735;28;19919;-29
2023/01/03 16:38:42;;;;;;;;;;;;;;;;;;5056008;28;20344;-29
2023/01/03 16:41:08;;;;;;;;;;;;;;;;;;5056176;28;19944;-26
2023/01/03 16:43:34;;;;;;;;;;;;;;;;;;5056418;28;19928;-31
2023/01/03 16:46:00;;;;;;;;;;;;;;;;;;5056221;28;20247;-28
2023/01/03 16:48:26;;;;;;;;;;;;;;;;;;5056343;28;19947;-24
2023/01/03 16:50:52;;;;;;;;;;;;;;;;;;5057051;28;19920;-31
2023/01/03 16:53:18;;;;;;;;;;;;;;;;;;5056026;28;19909;-32
2023/01/03 16:55:46;;;;;;;;;;;;;;;;;;5056153;28;19920;-28
2023/01/03 16:58:12;;;;;;;;;;;;;;;;;;5057174;28;19912;-27
2023/01/03 17:00:38;;;;;;;;;;;;;;;;;;5055938;28;19919;-28
2023/01/03 17:03:04;;;;;;;;;;;;;;;;;;5055830;28;20012;-32
2023/01/03 17:05:30;;;;;;;;;;;;;;;;;;5035766;28;19945;-32
2023/01/03 17:07:56;;;;;;;;;;;;;;;;;;5036146;28;19979;-27
2023/01/03 17:10:22;;;;;;;;;;;;;;;;;;5036153;28;19921;-34
2023/01/03 17:12:48;;;;;;;;;;;;;;;;;;5036076;28;19924;-29
2023/01/03 17:15:14;;;;;;;;;;;;;;;;;;5036005;28;20308;-29
2023/01/03 17:17:40;;;;;;;;;;;;;;;;;;5035997;28;19920;-26
2023/01/03 17:20:06;;;;;;;;;;;;;;;;;;5035950;28;19909;-27
2023/01/03 17:22:32;;;;;;;;;;;;;;;;;;5035842;28;19913;-28
2023/01/03 17:24:58;;;;;;;;;;;;;;;;;;5035914;28;20248;-29
2023/01/03 17:27:25;;;;;;;;;;;;;;;;;;5035739;28;19913;-31
2023/01/03 17:29:51;;;;;;;;;;;;;;;;;;5035478;28;19933;-26
2023/01/03 17:32:17;;;;;;;;;;;;;;;;;;5035172;28;20252;-31
2023/01/03 17:34:43;;;;;;;;;;;;;;;;;;5035165;28;19913;-27
2023/01/03 17:37:09;;;;;;;;;;;;;;;;;;5035191;28;19924;-32
2023/01/03 17:39:35;;;;;;;;;;;;;;;;;;5035019;28;20008;-27
2023/01/03 17:42:14;;;;;;;;;;;;;;;;;;5034700;28;19967;-29
2023/01/03 17:44:41;;;;;;;;;;;;;;;;;;5017561;28;19985;-26